sensor_id;sensor_type;location;lat;lon;timestamp;temperature;humidity
66119;DHT22;52912;48.564;9.302;2022-12-19T00:00:29;-2.71;92.65
66119;DHT22;52912;48.564;9.302;2022-12-19T00:02:54;-2.65;92.38
66119;DHT22;52912;48.564;9.302;2022-12-19T00:05:20;-2.70;92.59
66119;DHT22;52912;48.564;9.302;2022-12-19T00:07:47;-2.67;92.22
66119;DHT22;52912;48.564;9.302;2022-12-19T00:10:12;-2.60;92.31
66119;DHT22;52912;48.564;9.302;2022-12-19T00:12:39;-2.58;92.43
66119;DHT22;52912;48.564;9.302;2022-12-19T00:15:05;-2.53;92.53
66119;DHT22;52912;48.564;9.302;2022-12-19T00:17:31;-2.50;92.62
66119;DHT22;52912;48.564;9.302;2022-12-19T00:19:56;-2.58;92.94
66119;DHT22;52912;48.564;9.302;2022-12-19T00:22:22;-2.53;92.93
66119;DHT22;52912;48.564;9.302;2022-12-19T00:24:47;-2.54;93.04
66119;DHT22;52912;48.564;9.302;2022-12-19T00:27:13;-2.62;93.25
66119;DHT22;52912;48.564;9.302;2022-12-19T00:29:39;-2.57;93.35
66119;DHT22;52912;48.564;9.302;2022-12-19T00:32:05;-2.58;93.32
66119;DHT22;52912;48.564;9.302;2022-12-19T00:34:30;-2.51;93.21
66119;DHT22;52912;48.564;9.302;2022-12-19T00:36:56;-2.51;93.08
66119;DHT22;52912;48.564;9.302;2022-12-19T00:39:21;-2.46;93.09
66119;DHT22;52912;48.564;9.302;2022-12-19T00:41:47;-2.44;93.22
66119;DHT22;52912;48.564;9.302;2022-12-19T00:44:13;-2.43;93.18
66119;DHT22;52912;48.564;9.302;2022-12-19T00:46:40;-2.44;93.32
66119;DHT22;52912;48.564;9.302;2022-12-19T00:49:05;-2.37;93.35
66119;DHT22;52912;48.564;9.302;2022-12-19T00:51:33;-2.33;93.01
66119;DHT22;52912;48.564;9.302;2022-12-19T00:53:58;-2.32;93.26
66119;DHT22;52912;48.564;9.302;2022-12-19T00:56:25;-2.29;93.15
66119;DHT22;52912;48.564;9.302;2022-12-19T00:58:51;-2.28;93.34
66119;DHT22;52912;48.564;9.302;2022-12-19T01:01:18;-2.32;93.56
66119;DHT22;52912;48.564;9.302;2022-12-19T01:03:45;-2.19;93.05
66119;DHT22;52912;48.564;9.302;2022-12-19T01:06:11;-2.16;93.08
66119;DHT22;52912;48.564;9.302;2022-12-19T01:08:37;-2.19;93.25
66119;DHT22;52912;48.564;9.302;2022-12-19T01:11:03;-2.21;93.74
66119;DHT22;52912;48.564;9.302;2022-12-19T01:13:30;-2.15;93.99
66119;DHT22;52912;48.564;9.302;2022-12-19T01:15:56;-2.23;94.38
66119;DHT22;52912;48.564;9.302;2022-12-19T01:18:25;-2.25;94.62
66119;DHT22;52912;48.564;9.302;2022-12-19T01:20:52;-2.23;94.56
66119;DHT22;52912;48.564;9.302;2022-12-19T01:23:17;-2.21;94.26
66119;DHT22;52912;48.564;9.302;2022-12-19T01:25:47;-2.13;94.59
66119;DHT22;52912;48.564;9.302;2022-12-19T01:28:13;-2.12;93.98
66119;DHT22;52912;48.564;9.302;2022-12-19T01:30:39;-2.15;94.31
66119;DHT22;52912;48.564;9.302;2022-12-19T01:33:05;-2.16;94.21
66119;DHT22;52912;48.564;9.302;2022-12-19T01:35:31;-2.01;93.69
66119;DHT22;52912;48.564;9.302;2022-12-19T01:37:58;-1.98;93.63
66119;DHT22;52912;48.564;9.302;2022-12-19T01:40:23;-1.94;93.67
66119;DHT22;52912;48.564;9.302;2022-12-19T01:42:49;-1.81;93.45
66119;DHT22;52912;48.564;9.302;2022-12-19T01:45:26;-1.68;92.64
66119;DHT22;52912;48.564;9.302;2022-12-19T01:47:54;-1.39;91.60
66119;DHT22;52912;48.564;9.302;2022-12-19T01:50:25;-1.29;91.04
66119;DHT22;52912;48.564;9.302;2022-12-19T01:52:52;-1.13;90.67
66119;DHT22;52912;48.564;9.302;2022-12-19T01:55:19;-1.07;90.29
66119;DHT22;52912;48.564;9.302;2022-12-19T01:57:45;-1.09;90.48
66119;DHT22;52912;48.564;9.302;2022-12-19T02:00:12;-1.07;90.84
66119;DHT22;52912;48.564;9.302;2022-12-19T02:02:41;-1.08;90.94
66119;DHT22;52912;48.564;9.302;2022-12-19T02:05:08;-1.12;91.16
66119;DHT22;52912;48.564;9.302;2022-12-19T02:07:34;-1.08;91.95
66119;DHT22;52912;48.564;9.302;2022-12-19T02:10:00;-1.12;92.54
66119;DHT22;52912;48.564;9.302;2022-12-19T02:12:30;-1.25;93.20
66119;DHT22;52912;48.564;9.302;2022-12-19T02:14:59;-1.36;93.12
66119;DHT22;52912;48.564;9.302;2022-12-19T02:17:30;-1.38;92.90
66119;DHT22;52912;48.564;9.302;2022-12-19T02:20:25;-1.42;93.26
66119;DHT22;52912;48.564;9.302;2022-12-19T02:23:08;-1.49;94.85
66119;DHT22;52912;48.564;9.302;2022-12-19T02:25:52;-1.50;95.17
66119;DHT22;52912;48.564;9.302;2022-12-19T02:28:50;-1.42;94.71
66119;DHT22;52912;48.564;9.302;2022-12-19T02:31:25;-1.40;94.29
66119;DHT22;52912;48.564;9.302;2022-12-19T02:33:55;-1.43;94.38
66119;DHT22;52912;48.564;9.302;2022-12-19T02:36:27;-1.50;94.66
66119;DHT22;52912;48.564;9.302;2022-12-19T02:38:57;-1.49;94.86
66119;DHT22;52912;48.564;9.302;2022-12-19T02:41:27;-1.47;95.33
66119;DHT22;52912;48.564;9.302;2022-12-19T02:43:55;-1.46;95.45
66119;DHT22;52912;48.564;9.302;2022-12-19T02:46:23;-1.49;95.35
66119;DHT22;52912;48.564;9.302;2022-12-19T02:48:49;-1.50;95.32
66119;DHT22;52912;48.564;9.302;2022-12-19T02:51:15;-1.52;95.09
66119;DHT22;52912;48.564;9.302;2022-12-19T02:53:41;-1.52;95.03
66119;DHT22;52912;48.564;9.302;2022-12-19T02:56:21;-1.49;95.01
66119;DHT22;52912;48.564;9.302;2022-12-19T02:58:51;-1.49;94.85
66119;DHT22;52912;48.564;9.302;2022-12-19T03:01:31;-1.40;94.81
66119;DHT22;52912;48.564;9.302;2022-12-19T03:04:05;-1.39;94.52
66119;DHT22;52912;48.564;9.302;2022-12-19T03:06:37;-1.42;94.49
66119;DHT22;52912;48.564;9.302;2022-12-19T03:09:11;-1.44;94.57
66119;DHT22;52912;48.564;9.302;2022-12-19T03:11:41;-1.43;94.50
66119;DHT22;52912;48.564;9.302;2022-12-19T03:14:10;-1.44;94.43
66119;DHT22;52912;48.564;9.302;2022-12-19T03:16:37;-1.46;94.98
66119;DHT22;52912;48.564;9.302;2022-12-19T03:19:04;-1.40;95.25
66119;DHT22;52912;48.564;9.302;2022-12-19T03:21:35;-1.39;95.44
66119;DHT22;52912;48.564;9.302;2022-12-19T03:24:02;-1.32;95.21
66119;DHT22;52912;48.564;9.302;2022-12-19T03:26:30;-1.26;94.96
66119;DHT22;52912;48.564;9.302;2022-12-19T03:28:59;-1.26;95.05
66119;DHT22;52912;48.564;9.302;2022-12-19T03:31:28;-1.26;94.86
66119;DHT22;52912;48.564;9.302;2022-12-19T03:33:59;-1.26;95.23
66119;DHT22;52912;48.564;9.302;2022-12-19T03:36:29;-1.26;94.86
66119;DHT22;52912;48.564;9.302;2022-12-19T03:38:56;-1.28;94.65
66119;DHT22;52912;48.564;9.302;2022-12-19T03:41:23;-1.32;95.61
66119;DHT22;52912;48.564;9.302;2022-12-19T03:43:50;-1.31;95.73
66119;DHT22;52912;48.564;9.302;2022-12-19T03:46:20;-1.26;95.89
66119;DHT22;52912;48.564;9.302;2022-12-19T03:48:48;-1.26;95.79
66119;DHT22;52912;48.564;9.302;2022-12-19T03:51:25;-1.24;95.90
66119;DHT22;52912;48.564;9.302;2022-12-19T03:53:59;-1.22;95.67
66119;DHT22;52912;48.564;9.302;2022-12-19T03:56:32;-1.18;96.16
66119;DHT22;52912;48.564;9.302;2022-12-19T03:59:01;-1.22;96.35
66119;DHT22;52912;48.564;9.302;2022-12-19T04:01:30;-1.15;96.37
66119;DHT22;52912;48.564;9.302;2022-12-19T04:03:58;-1.11;96.56
66119;DHT22;52912;48.564;9.302;2022-12-19T04:06:28;-1.11;96.35
66119;DHT22;52912;48.564;9.302;2022-12-19T04:08:56;-1.02;96.21
66119;DHT22;52912;48.564;9.302;2022-12-19T04:11:24;-0.99;95.97
66119;DHT22;52912;48.564;9.302;2022-12-19T04:13:56;-0.94;95.68
66119;DHT22;52912;48.564;9.302;2022-12-19T04:16:26;-0.83;95.23
66119;DHT22;52912;48.564;9.302;2022-12-19T04:18:57;-0.77;95.45
66119;DHT22;52912;48.564;9.302;2022-12-19T04:21:30;-0.73;95.49
66119;DHT22;52912;48.564;9.302;2022-12-19T04:24:00;-0.74;95.20
66119;DHT22;52912;48.564;9.302;2022-12-19T04:26:29;-0.67;95.44
66119;DHT22;52912;48.564;9.302;2022-12-19T04:28:57;-0.62;95.63
66119;DHT22;52912;48.564;9.302;2022-12-19T04:31:24;-0.59;94.86
66119;DHT22;52912;48.564;9.302;2022-12-19T04:33:49;-0.56;95.12
66119;DHT22;52912;48.564;9.302;2022-12-19T04:36:15;-0.56;95.56
66119;DHT22;52912;48.564;9.302;2022-12-19T04:38:42;-0.48;95.86
66119;DHT22;52912;48.564;9.302;2022-12-19T04:41:07;-0.49;95.75
66119;DHT22;52912;48.564;9.302;2022-12-19T04:43:32;-0.49;95.84
66119;DHT22;52912;48.564;9.302;2022-12-19T04:45:58;-0.45;96.01
66119;DHT22;52912;48.564;9.302;2022-12-19T04:48:24;-0.52;96.07
66119;DHT22;52912;48.564;9.302;2022-12-19T04:50:50;-0.52;95.94
66119;DHT22;52912;48.564;9.302;2022-12-19T04:53:15;-0.50;96.24
66119;DHT22;52912;48.564;9.302;2022-12-19T04:55:42;-0.48;96.90
66119;DHT22;52912;48.564;9.302;2022-12-19T04:58:08;-0.46;96.89
66119;DHT22;52912;48.564;9.302;2022-12-19T05:00:33;-0.45;96.69
66119;DHT22;52912;48.564;9.302;2022-12-19T05:02:59;-0.40;96.60
66119;DHT22;52912;48.564;9.302;2022-12-19T05:05:24;-0.40;96.79
66119;DHT22;52912;48.564;9.302;2022-12-19T05:07:50;-0.37;96.79
66119;DHT22;52912;48.564;9.302;2022-12-19T05:10:15;-0.35;96.74
66119;DHT22;52912;48.564;9.302;2022-12-19T05:12:42;-0.39;96.77
66119;DHT22;52912;48.564;9.302;2022-12-19T05:15:09;-0.39;96.83
66119;DHT22;52912;48.564;9.302;2022-12-19T05:17:34;-0.37;96.92
66119;DHT22;52912;48.564;9.302;2022-12-19T05:20:00;-0.35;97.12
66119;DHT22;52912;48.564;9.302;2022-12-19T05:22:25;-0.32;97.26
66119;DHT22;52912;48.564;9.302;2022-12-19T05:24:51;-0.32;98.28
66119;DHT22;52912;48.564;9.302;2022-12-19T05:27:16;-0.29;97.74
66119;DHT22;52912;48.564;9.302;2022-12-19T05:29:43;-0.26;97.50
66119;DHT22;52912;48.564;9.302;2022-12-19T05:32:08;-0.26;97.29
66119;DHT22;52912;48.564;9.302;2022-12-19T05:34:34;-0.28;97.29
66119;DHT22;52912;48.564;9.302;2022-12-19T05:36:59;-0.26;97.90
66119;DHT22;52912;48.564;9.302;2022-12-19T05:39:25;-0.19;98.10
66119;DHT22;52912;48.564;9.302;2022-12-19T05:41:50;-0.14;98.25
66119;DHT22;52912;48.564;9.302;2022-12-19T05:44:16;-0.05;97.54
66119;DHT22;52912;48.564;9.302;2022-12-19T05:46:42;-0.08;97.17
66119;DHT22;52912;48.564;9.302;2022-12-19T05:49:08;-0.11;97.31
66119;DHT22;52912;48.564;9.302;2022-12-19T05:51:33;-0.15;97.36
66119;DHT22;52912;48.564;9.302;2022-12-19T05:53:59;-0.15;97.44
66119;DHT22;52912;48.564;9.302;2022-12-19T05:56:24;-0.15;97.35
66119;DHT22;52912;48.564;9.302;2022-12-19T05:58:50;-0.15;97.61
66119;DHT22;52912;48.564;9.302;2022-12-19T06:01:18;-0.14;97.56
66119;DHT22;52912;48.564;9.302;2022-12-19T06:03:45;-0.15;97.69
66119;DHT22;52912;48.564;9.302;2022-12-19T06:06:12;-0.11;97.69
66119;DHT22;52912;48.564;9.302;2022-12-19T06:08:38;-0.15;97.70
66119;DHT22;52912;48.564;9.302;2022-12-19T06:11:05;-0.17;97.39
66119;DHT22;52912;48.564;9.302;2022-12-19T06:13:31;-0.18;97.50
66119;DHT22;52912;48.564;9.302;2022-12-19T06:15:57;-0.19;97.45
66119;DHT22;52912;48.564;9.302;2022-12-19T06:18:23;-0.15;97.69
66119;DHT22;52912;48.564;9.302;2022-12-19T06:20:56;-0.12;97.59
66119;DHT22;52912;48.564;9.302;2022-12-19T06:23:22;-0.17;97.75
66119;DHT22;52912;48.564;9.302;2022-12-19T06:25:47;-0.18;97.84
66119;DHT22;52912;48.564;9.302;2022-12-19T06:28:13;-0.19;98.14
66119;DHT22;52912;48.564;9.302;2022-12-19T06:30:38;-0.18;98.32
66119;DHT22;52912;48.564;9.302;2022-12-19T06:33:04;-0.18;98.32
66119;DHT22;52912;48.564;9.302;2022-12-19T06:35:29;-0.12;98.29
66119;DHT22;52912;48.564;9.302;2022-12-19T06:37:56;-0.08;97.98
66119;DHT22;52912;48.564;9.302;2022-12-19T06:40:21;-0.08;98.13
66119;DHT22;52912;48.564;9.302;2022-12-19T06:42:47;-0.07;98.27
66119;DHT22;52912;48.564;9.302;2022-12-19T06:45:12;-0.12;98.43
66119;DHT22;52912;48.564;9.302;2022-12-19T06:47:38;-0.11;98.70
66119;DHT22;52912;48.564;9.302;2022-12-19T06:50:04;-0.08;98.97
66119;DHT22;52912;48.564;9.302;2022-12-19T06:52:29;-0.05;98.89
66119;DHT22;52912;48.564;9.302;2022-12-19T06:54:56;-0.05;98.67
66119;DHT22;52912;48.564;9.302;2022-12-19T06:57:22;-0.04;99.05
66119;DHT22;52912;48.564;9.302;2022-12-19T06:59:47;-0.04;99.03
66119;DHT22;52912;48.564;9.302;2022-12-19T07:02:20;-0.07;98.93
66119;DHT22;52912;48.564;9.302;2022-12-19T07:04:49;-0.04;99.25
66119;DHT22;52912;48.564;9.302;2022-12-19T07:07:16;-0.01;99.35
66119;DHT22;52912;48.564;9.302;2022-12-19T07:09:42;0.00;99.27
66119;DHT22;52912;48.564;9.302;2022-12-19T07:12:08;0.03;99.09
66119;DHT22;52912;48.564;9.302;2022-12-19T07:14:34;0.02;99.07
66119;DHT22;52912;48.564;9.302;2022-12-19T07:17:00;-0.01;99.27
66119;DHT22;52912;48.564;9.302;2022-12-19T07:19:27;0.05;99.42
66119;DHT22;52912;48.564;9.302;2022-12-19T07:21:53;0.05;99.49
66119;DHT22;52912;48.564;9.302;2022-12-19T07:24:19;0.07;99.60
66119;DHT22;52912;48.564;9.302;2022-12-19T07:26:44;0.09;99.52
66119;DHT22;52912;48.564;9.302;2022-12-19T07:29:12;0.17;99.60
66119;DHT22;52912;48.564;9.302;2022-12-19T07:31:38;0.21;99.44
66119;DHT22;52912;48.564;9.302;2022-12-19T07:34:03;0.21;99.22
66119;DHT22;52912;48.564;9.302;2022-12-19T07:36:29;0.24;99.31
66119;DHT22;52912;48.564;9.302;2022-12-19T07:38:54;0.30;99.19
66119;DHT22;52912;48.564;9.302;2022-12-19T07:41:20;0.28;99.07
66119;DHT22;52912;48.564;9.302;2022-12-19T07:43:45;0.34;99.02
66119;DHT22;52912;48.564;9.302;2022-12-19T07:46:12;0.37;99.17
66119;DHT22;52912;48.564;9.302;2022-12-19T07:48:38;0.40;98.93
66119;DHT22;52912;48.564;9.302;2022-12-19T07:51:04;0.50;98.87
66119;DHT22;52912;48.564;9.302;2022-12-19T07:53:29;0.48;98.69
66119;DHT22;52912;48.564;9.302;2022-12-19T07:55:55;0.53;98.63
66119;DHT22;52912;48.564;9.302;2022-12-19T07:58:20;0.55;98.72
66119;DHT22;52912;48.564;9.302;2022-12-19T08:00:53;0.62;98.52
66119;DHT22;52912;48.564;9.302;2022-12-19T08:03:19;0.66;98.29
66119;DHT22;52912;48.564;9.302;2022-12-19T08:05:45;0.69;98.33
66119;DHT22;52912;48.564;9.302;2022-12-19T08:08:10;0.71;98.26
66119;DHT22;52912;48.564;9.302;2022-12-19T08:10:36;0.69;98.21
66119;DHT22;52912;48.564;9.302;2022-12-19T08:13:01;0.72;98.05
66119;DHT22;52912;48.564;9.302;2022-12-19T08:15:27;0.72;98.14
66119;DHT22;52912;48.564;9.302;2022-12-19T08:17:52;0.72;98.10
66119;DHT22;52912;48.564;9.302;2022-12-19T08:20:19;0.76;98.10
66119;DHT22;52912;48.564;9.302;2022-12-19T08:22:45;0.78;98.06
66119;DHT22;52912;48.564;9.302;2022-12-19T08:25:10;0.79;97.90
66119;DHT22;52912;48.564;9.302;2022-12-19T08:27:36;0.79;97.92
66119;DHT22;52912;48.564;9.302;2022-12-19T08:30:01;0.82;97.81
66119;DHT22;52912;48.564;9.302;2022-12-19T08:32:27;0.88;97.74
66119;DHT22;52912;48.564;9.302;2022-12-19T08:34:52;0.93;97.56
66119;DHT22;52912;48.564;9.302;2022-12-19T08:37:19;0.90;97.86
66119;DHT22;52912;48.564;9.302;2022-12-19T08:39:44;0.99;97.49
66119;DHT22;52912;48.564;9.302;2022-12-19T08:42:10;0.97;97.46
66119;DHT22;52912;48.564;9.302;2022-12-19T08:44:35;0.97;97.54
66119;DHT22;52912;48.564;9.302;2022-12-19T08:47:01;1.03;97.71
66119;DHT22;52912;48.564;9.302;2022-12-19T08:49:26;1.06;97.41
66119;DHT22;52912;48.564;9.302;2022-12-19T08:51:52;1.17;97.02
66119;DHT22;52912;48.564;9.302;2022-12-19T08:54:18;1.22;96.71
66119;DHT22;52912;48.564;9.302;2022-12-19T08:56:44;1.31;96.51
66119;DHT22;52912;48.564;9.302;2022-12-19T08:59:09;1.26;96.66
66119;DHT22;52912;48.564;9.302;2022-12-19T09:01:35;1.30;96.67
66119;DHT22;52912;48.564;9.302;2022-12-19T09:04:00;1.40;96.48
66119;DHT22;52912;48.564;9.302;2022-12-19T09:06:26;1.38;96.55
66119;DHT22;52912;48.564;9.302;2022-12-19T09:08:51;1.47;96.05
66119;DHT22;52912;48.564;9.302;2022-12-19T09:11:19;1.48;96.07
66119;DHT22;52912;48.564;9.302;2022-12-19T09:13:46;1.45;95.90
66119;DHT22;52912;48.564;9.302;2022-12-19T09:16:13;1.61;95.58
66119;DHT22;52912;48.564;9.302;2022-12-19T09:18:40;1.66;95.48
66119;DHT22;52912;48.564;9.302;2022-12-19T09:21:06;1.65;95.30
66119;DHT22;52912;48.564;9.302;2022-12-19T09:23:32;1.71;95.17
66119;DHT22;52912;48.564;9.302;2022-12-19T09:26:01;1.82;94.59
66119;DHT22;52912;48.564;9.302;2022-12-19T09:28:28;1.92;94.48
66119;DHT22;52912;48.564;9.302;2022-12-19T09:30:54;1.90;94.58
66119;DHT22;52912;48.564;9.302;2022-12-19T09:33:20;1.97;94.28
66119;DHT22;52912;48.564;9.302;2022-12-19T09:35:48;2.16;93.72
66119;DHT22;52912;48.564;9.302;2022-12-19T09:38:14;2.13;94.17
66119;DHT22;52912;48.564;9.302;2022-12-19T09:40:48;2.17;93.96
66119;DHT22;52912;48.564;9.302;2022-12-19T09:43:25;2.21;93.85
66119;DHT22;52912;48.564;9.302;2022-12-19T09:46:05;2.33;93.58
66119;DHT22;52912;48.564;9.302;2022-12-19T09:48:35;2.35;93.46
66119;DHT22;52912;48.564;9.302;2022-12-19T09:51:04;2.30;93.95
66119;DHT22;52912;48.564;9.302;2022-12-19T09:53:33;2.31;93.92
66119;DHT22;52912;48.564;9.302;2022-12-19T09:56:01;2.40;93.44
66119;DHT22;52912;48.564;9.302;2022-12-19T09:58:31;2.42;93.48
66119;DHT22;52912;48.564;9.302;2022-12-19T10:01:01;2.46;93.43
66119;DHT22;52912;48.564;9.302;2022-12-19T10:03:31;2.46;93.37
66119;DHT22;52912;48.564;9.302;2022-12-19T10:06:01;2.55;93.03
66119;DHT22;52912;48.564;9.302;2022-12-19T10:08:31;2.52;93.42
66119;DHT22;52912;48.564;9.302;2022-12-19T10:11:05;2.44;93.84
66119;DHT22;52912;48.564;9.302;2022-12-19T10:13:44;2.44;93.81
66119;DHT22;52912;48.564;9.302;2022-12-19T10:16:23;2.51;93.80
66119;DHT22;52912;48.564;9.302;2022-12-19T10:18:52;2.55;93.67
66119;DHT22;52912;48.564;9.302;2022-12-19T10:21:27;2.63;93.57
66119;DHT22;52912;48.564;9.302;2022-12-19T10:26:51;2.66;93.84
66119;DHT22;52912;48.564;9.302;2022-12-19T10:29:43;2.73;93.50
66119;DHT22;52912;48.564;9.302;2022-12-19T10:32:22;2.76;93.69
66119;DHT22;52912;48.564;9.302;2022-12-19T10:34:50;2.72;94.21
66119;DHT22;52912;48.564;9.302;2022-12-19T10:37:20;2.68;94.46
66119;DHT22;52912;48.564;9.302;2022-12-19T10:39:54;2.71;94.63
66119;DHT22;52912;48.564;9.302;2022-12-19T10:42:29;2.78;94.05
66119;DHT22;52912;48.564;9.302;2022-12-19T10:44:58;2.85;93.75
66119;DHT22;52912;48.564;9.302;2022-12-19T10:47:26;2.89;93.85
66119;DHT22;52912;48.564;9.302;2022-12-19T10:49:52;2.97;93.80
66119;DHT22;52912;48.564;9.302;2022-12-19T10:52:45;2.89;93.75
66119;DHT22;52912;48.564;9.302;2022-12-19T10:55:21;3.10;93.06
66119;DHT22;52912;48.564;9.302;2022-12-19T10:57:48;3.11;92.83
66119;DHT22;52912;48.564;9.302;2022-12-19T11:00:15;3.10;93.16
66119;DHT22;52912;48.564;9.302;2022-12-19T11:02:45;3.17;92.55
66119;DHT22;52912;48.564;9.302;2022-12-19T11:05:23;3.21;92.68
66119;DHT22;52912;48.564;9.302;2022-12-19T11:07:59;3.20;92.77
66119;DHT22;52912;48.564;9.302;2022-12-19T11:10:37;3.20;92.97
66119;DHT22;52912;48.564;9.302;2022-12-19T11:13:17;3.32;92.50
66119;DHT22;52912;48.564;9.302;2022-12-19T11:15:46;3.68;91.27
66119;DHT22;52912;48.564;9.302;2022-12-19T11:18:13;4.13;90.28
66119;DHT22;52912;48.564;9.302;2022-12-19T11:20:39;4.46;89.39
66119;DHT22;52912;48.564;9.302;2022-12-19T11:23:04;4.63;89.63
66119;DHT22;52912;48.564;9.302;2022-12-19T11:25:40;4.98;88.80
66119;DHT22;52912;48.564;9.302;2022-12-19T11:28:08;4.98;87.97
66119;DHT22;52912;48.564;9.302;2022-12-19T11:30:39;5.38;86.76
66119;DHT22;52912;48.564;9.302;2022-12-19T11:33:07;5.73;86.03
66119;DHT22;52912;48.564;9.302;2022-12-19T11:35:46;5.94;85.74
66119;DHT22;52912;48.564;9.302;2022-12-19T11:38:15;6.31;83.88
66119;DHT22;52912;48.564;9.302;2022-12-19T11:40:42;6.25;83.21
66119;DHT22;52912;48.564;9.302;2022-12-19T11:43:11;6.42;82.40
66119;DHT22;52912;48.564;9.302;2022-12-19T11:45:50;6.04;83.34
66119;DHT22;52912;48.564;9.302;2022-12-19T11:48:22;6.12;83.88
66119;DHT22;52912;48.564;9.302;2022-12-19T11:50:53;6.31;83.72
66119;DHT22;52912;48.564;9.302;2022-12-19T11:53:25;6.76;83.82
66119;DHT22;52912;48.564;9.302;2022-12-19T11:55:55;6.83;83.27
66119;DHT22;52912;48.564;9.302;2022-12-19T11:58:23;7.02;82.85
66119;DHT22;52912;48.564;9.302;2022-12-19T12:00:53;6.57;83.81
66119;DHT22;52912;48.564;9.302;2022-12-19T12:06:20;6.36;84.23
66119;DHT22;52912;48.564;9.302;2022-12-19T12:09:03;6.15;85.47
66119;DHT22;52912;48.564;9.302;2022-12-19T12:11:39;5.90;85.41
66119;DHT22;52912;48.564;9.302;2022-12-19T12:14:19;5.73;85.38
66119;DHT22;52912;48.564;9.302;2022-12-19T12:16:56;5.65;85.30
66119;DHT22;52912;48.564;9.302;2022-12-19T12:19:33;5.76;85.92
66119;DHT22;52912;48.564;9.302;2022-12-19T12:22:15;5.81;86.76
66119;DHT22;52912;48.564;9.302;2022-12-19T12:24:49;5.83;87.61
66119;DHT22;52912;48.564;9.302;2022-12-19T12:27:28;5.97;87.54
66119;DHT22;52912;48.564;9.302;2022-12-19T12:30:02;5.93;87.19
66119;DHT22;52912;48.564;9.302;2022-12-19T12:32:47;5.93;87.27
66119;DHT22;52912;48.564;9.302;2022-12-19T12:35:22;5.97;87.87
66119;DHT22;52912;48.564;9.302;2022-12-19T12:38:02;5.87;88.06
66119;DHT22;52912;48.564;9.302;2022-12-19T12:40:51;5.69;88.07
66119;DHT22;52912;48.564;9.302;2022-12-19T12:43:30;5.48;88.85
66119;DHT22;52912;48.564;9.302;2022-12-19T12:46:00;5.52;88.27
66119;DHT22;52912;48.564;9.302;2022-12-19T12:48:42;5.52;88.54
66119;DHT22;52912;48.564;9.302;2022-12-19T12:51:10;5.60;87.95
66119;DHT22;52912;48.564;9.302;2022-12-19T12:53:42;5.62;88.45
66119;DHT22;52912;48.564;9.302;2022-12-19T12:56:09;5.62;88.00
66119;DHT22;52912;48.564;9.302;2022-12-19T13:01:31;5.81;86.70
66119;DHT22;52912;48.564;9.302;2022-12-19T13:04:03;5.76;86.87
66119;DHT22;52912;48.564;9.302;2022-12-19T13:06:32;5.94;85.74
66119;DHT22;52912;48.564;9.302;2022-12-19T13:09:04;5.83;85.42
66119;DHT22;52912;48.564;9.302;2022-12-19T13:11:36;5.52;86.28
66119;DHT22;52912;48.564;9.302;2022-12-19T13:14:03;5.38;86.95
66119;DHT22;52912;48.564;9.302;2022-12-19T13:16:48;5.55;86.67
66119;DHT22;52912;48.564;9.302;2022-12-19T13:19:16;5.46;87.77
66119;DHT22;52912;48.564;9.302;2022-12-19T13:22:17;5.39;88.16
66119;DHT22;52912;48.564;9.302;2022-12-19T13:24:46;5.49;88.10
66119;DHT22;52912;48.564;9.302;2022-12-19T13:27:32;5.45;88.80
66119;DHT22;52912;48.564;9.302;2022-12-19T13:30:11;5.32;89.37
66119;DHT22;52912;48.564;9.302;2022-12-19T13:35:32;5.13;89.74
66119;DHT22;52912;48.564;9.302;2022-12-19T13:37:59;5.10;89.30
66119;DHT22;52912;48.564;9.302;2022-12-19T13:40:29;5.11;89.36
66119;DHT22;52912;48.564;9.302;2022-12-19T13:43:11;4.97;89.99
66119;DHT22;52912;48.564;9.302;2022-12-19T13:45:39;4.96;90.00
66119;DHT22;52912;48.564;9.302;2022-12-19T13:48:12;4.83;91.10
66119;DHT22;52912;48.564;9.302;2022-12-19T13:50:40;4.77;91.74
66119;DHT22;52912;48.564;9.302;2022-12-19T13:53:08;4.68;92.52
66119;DHT22;52912;48.564;9.302;2022-12-19T13:55:39;4.63;92.37
66119;DHT22;52912;48.564;9.302;2022-12-19T13:58:05;4.55;92.55
66119;DHT22;52912;48.564;9.302;2022-12-19T14:00:33;4.60;92.25
66119;DHT22;52912;48.564;9.302;2022-12-19T14:03:00;4.62;91.74
66119;DHT22;52912;48.564;9.302;2022-12-19T14:05:29;4.49;92.40
66119;DHT22;52912;48.564;9.302;2022-12-19T14:07:55;4.44;92.45
66119;DHT22;52912;48.564;9.302;2022-12-19T14:10:24;4.46;92.26
66119;DHT22;52912;48.564;9.302;2022-12-19T14:12:56;4.34;92.11
66119;DHT22;52912;48.564;9.302;2022-12-19T14:15:25;4.32;91.78
66119;DHT22;52912;48.564;9.302;2022-12-19T14:17:51;4.35;91.86
66119;DHT22;52912;48.564;9.302;2022-12-19T14:20:19;4.37;91.62
66119;DHT22;52912;48.564;9.302;2022-12-19T14:22:45;4.40;91.92
66119;DHT22;52912;48.564;9.302;2022-12-19T14:25:10;4.40;92.09
66119;DHT22;52912;48.564;9.302;2022-12-19T14:27:39;4.31;92.50
66119;DHT22;52912;48.564;9.302;2022-12-19T14:30:15;4.22;92.90
66119;DHT22;52912;48.564;9.302;2022-12-19T14:32:43;4.21;93.16
66119;DHT22;52912;48.564;9.302;2022-12-19T14:35:14;4.15;93.76
66119;DHT22;52912;48.564;9.302;2022-12-19T14:37:43;4.15;94.12
66119;DHT22;52912;48.564;9.302;2022-12-19T14:40:23;4.01;94.95
66119;DHT22;52912;48.564;9.302;2022-12-19T14:42:49;3.87;94.88
66119;DHT22;52912;48.564;9.302;2022-12-19T14:45:33;3.86;95.07
66119;DHT22;52912;48.564;9.302;2022-12-19T14:47:59;3.83;95.06
66119;DHT22;52912;48.564;9.302;2022-12-19T14:50:27;3.76;95.16
66119;DHT22;52912;48.564;9.302;2022-12-19T14:53:05;3.72;95.48
66119;DHT22;52912;48.564;9.302;2022-12-19T14:55:31;3.59;95.60
66119;DHT22;52912;48.564;9.302;2022-12-19T14:57:58;3.55;95.39
66119;DHT22;52912;48.564;9.302;2022-12-19T15:00:41;3.55;95.16
66119;DHT22;52912;48.564;9.302;2022-12-19T15:03:08;3.51;95.05
66119;DHT22;52912;48.564;9.302;2022-12-19T15:05:33;3.55;94.84
66119;DHT22;52912;48.564;9.302;2022-12-19T15:07:59;3.52;94.80
66119;DHT22;52912;48.564;9.302;2022-12-19T15:10:27;3.32;96.27
66119;DHT22;52912;48.564;9.302;2022-12-19T15:12:55;3.10;96.31
66119;DHT22;52912;48.564;9.302;2022-12-19T15:15:24;3.24;96.75
66119;DHT22;52912;48.564;9.302;2022-12-19T15:17:53;3.28;96.52
66119;DHT22;52912;48.564;9.302;2022-12-19T15:20:19;3.28;95.70
66119;DHT22;52912;48.564;9.302;2022-12-19T15:22:45;3.08;95.70
66119;DHT22;52912;48.564;9.302;2022-12-19T15:25:13;3.03;96.34
66119;DHT22;52912;48.564;9.302;2022-12-19T15:27:39;3.13;96.44
66119;DHT22;52912;48.564;9.302;2022-12-19T15:30:12;3.34;95.71
66119;DHT22;52912;48.564;9.302;2022-12-19T15:32:38;3.66;94.92
66119;DHT22;52912;48.564;9.302;2022-12-19T15:35:10;3.72;93.97
66119;DHT22;52912;48.564;9.302;2022-12-19T15:37:35;3.58;94.80
66119;DHT22;52912;48.564;9.302;2022-12-19T15:40:01;3.55;94.65
66119;DHT22;52912;48.564;9.302;2022-12-19T15:42:26;3.59;94.23
66119;DHT22;52912;48.564;9.302;2022-12-19T15:44:52;3.52;94.35
66119;DHT22;52912;48.564;9.302;2022-12-19T15:47:24;3.42;95.13
66119;DHT22;52912;48.564;9.302;2022-12-19T15:49:53;3.34;95.56
66119;DHT22;52912;48.564;9.302;2022-12-19T15:52:20;3.45;94.81
66119;DHT22;52912;48.564;9.302;2022-12-19T15:54:46;3.34;94.99
66119;DHT22;52912;48.564;9.302;2022-12-19T15:57:21;3.28;94.88
66119;DHT22;52912;48.564;9.302;2022-12-19T15:59:50;3.13;94.97
66119;DHT22;52912;48.564;9.302;2022-12-19T16:02:20;3.00;95.09